Terminal Aerodrome Forecast
Issued by NWS Rapid City, SD

Home | Current Version | Previous Version | Text Only | Print | Product List | Glossary On
Versions: 1 2 3 4 5 6 7 8 9 10 11 12 13 14 15 16 17 18 19 20 21 22 23 24
000
FTUS43 KUNR 252006 AAA
TAFRAP
TAF AMD
KRAP 252006Z 2520/2618 18017G27KT P6SM VCTS FEW100CB
     FM252300 16010KT P6SM -TSRA BKN050CB
     FM260200 20007KT P6SM SCT150=

USA.gov is the U.S. government's official web portal to all federal, state and local government web resources and services.